Time;durP1;ratioP1;P1;durP2;ratioP2;P2;SDS_P1;SDS_P2;PMS_P1;PMS_P2;Temp;Humidity;BMP_temperature;BMP_pressure;BME280_temperature;BME280_humidity;BME280_pressure;Samples;Min_cycle;Max_cycle;Signal;HPM_P1;HPM_P2
2022/06/12 00:00:12;;;;;;;1.77;1.70;;;;;;;17.52;98.13;100781.03;5008491;28;20492;-49
2022/06/12 00:02:39;;;;;;;0.50;0.50;;;;;;;17.32;98.92;100774.84;4995854;28;20839;-49
2022/06/12 00:05:12;;;;;;;0.50;0.40;;;;;;;17.23;99.80;100774.41;5008782;28;20533;-50
2022/06/12 00:07:38;;;;;;;1.00;1.00;;;;;;;17.33;98.41;100775.72;4995974;28;20507;-49
2022/06/12 00:10:05;;;;;;;0.40;0.20;;;;;;;17.30;99.00;100781.25;5008216;28;20449;-49
2022/06/12 00:12:32;;;;;;;0.40;0.30;;;;;;;17.39;98.54;100778.97;4996372;28;20885;-49
2022/06/12 00:14:59;;;;;;;0.40;0.20;;;;;;;17.22;99.19;100778.03;5003830;28;20453;-50
2022/06/12 00:17:26;;;;;;;0.40;0.30;;;;;;;17.11;100.00;100778.56;5009338;28;20460;-50
2022/06/12 00:19:52;;;;;;;1.63;0.63;;;;;;;17.10;100.00;100779.50;4996751;28;20507;-49
2022/06/12 00:22:19;;;;;;;0.40;0.27;;;;;;;17.28;99.01;100778.63;5006250;28;20558;-49
2022/06/12 00:24:46;;;;;;;0.50;0.30;;;;;;;17.28;99.07;100780.44;4996933;28;20508;-50
2022/06/12 00:27:13;;;;;;;0.50;0.30;;;;;;;17.31;98.53;100782.97;4996353;28;20461;-50
2022/06/12 00:30:13;;;;;;;0.47;0.30;;;;;;;17.18;99.18;100778.19;4999756;28;20506;-49
2022/06/12 00:32:40;;;;;;;0.50;0.30;;;;;;;16.95;100.00;100774.84;4998431;28;21085;-49
2022/06/12 00:35:08;;;;;;;0.40;0.20;;;;;;;17.01;100.00;100783.50;5006185;28;20457;-48
2022/06/12 00:37:36;;;;;;;0.50;0.40;;;;;;;17.03;100.00;100778.06;4997453;28;20453;-49
2022/06/12 00:40:04;;;;;;;0.40;0.30;;;;;;;17.00;100.00;100778.22;5004829;28;20861;-48
2022/06/12 00:42:36;;;;;;;0.40;0.20;;;;;;;16.99;100.00;100773.75;4996896;28;20473;-48
2022/06/12 00:45:32;;;;;;;1.00;0.53;;;;;;;16.69;100.00;100773.38;5006277;28;20503;-48
2022/06/12 00:48:01;;;;;;;0.50;0.40;;;;;;;16.72;100.00;100782.19;5005438;28;20528;-48
2022/06/12 00:50:30;;;;;;;0.73;0.73;;;;;;;16.59;100.00;100779.16;4993906;28;20454;-48
2022/06/12 00:52:57;;;;;;;0.50;0.37;;;;;;;16.58;100.00;100789.94;4997122;28;20457;-48
2022/06/12 00:55:27;;;;;;;0.40;0.20;;;;;;;16.70;100.00;100783.19;4996627;28;20445;-50
2022/06/12 00:58:08;;;;;;;0.50;0.40;;;;;;;16.73;100.00;100786.63;5003723;28;20465;-49
2022/06/12 01:00:37;;;;;;;1.07;1.07;;;;;;;16.53;100.00;100786.59;4995070;28;20497;-48
2022/06/12 01:03:04;;;;;;;0.90;0.90;;;;;;;16.58;100.00;100789.94;5006982;28;20459;-48
2022/06/12 01:08:19;;;;;;;0.40;0.30;;;;;;;16.37;100.00;100785.56;4996584;28;20472;-48
2022/06/12 01:10:48;;;;;;;0.40;0.30;;;;;;;16.37;100.00;100781.06;5004241;28;20480;-48
2022/06/12 01:13:25;;;;;;;0.50;0.30;;;;;;;16.31;100.00;100784.03;4997520;28;20456;-49
2022/06/12 01:15:57;;;;;;;0.63;0.63;;;;;;;16.23;100.00;100775.44;5009476;28;20508;-49
2022/06/12 01:18:31;;;;;;;0.53;0.50;;;;;;;16.25;100.00;100776.22;4994939;28;20460;-49
2022/06/12 01:21:16;;;;;;;0.40;0.30;;;;;;;16.24;100.00;100775.34;5006819;28;20990;-49
2022/06/12 01:24:13;;;;;;;0.40;0.20;;;;;;;16.11;100.00;100775.97;4999340;28;20449;-49
2022/06/12 01:26:57;;;;;;;0.50;0.50;;;;;;;16.30;100.00;100775.06;4994331;28;20458;-49
2022/06/12 01:29:48;;;;;;;0.47;0.30;;;;;;;15.97;100.00;100777.44;5009570;28;20514;-49
2022/06/12 01:32:26;;;;;;;0.40;0.30;;;;;;;15.87;100.00;100778.75;5000351;28;20469;-48
2022/06/12 01:35:16;;;;;;;0.40;0.20;;;;;;;15.99;100.00;100782.72;5002487;28;20508;-49
2022/06/12 01:37:50;;;;;;;0.50;0.30;;;;;;;16.16;100.00;100765.88;4990490;28;20992;-49
2022/06/12 01:40:22;;;;;;;0.40;0.30;;;;;;;15.91;100.00;100782.19;5001157;28;20504;-49
2022/06/12 01:42:59;;;;;;;3.07;1.80;;;;;;;16.04;100.00;100783.41;5006139;28;20540;-49
2022/06/12 01:46:01;;;;;;;0.60;0.60;;;;;;;15.88;100.00;100774.25;5005405;28;20498;-49
2022/06/12 01:48:41;;;;;;;0.50;0.30;;;;;;;15.93;100.00;100775.81;4995625;28;20442;-49
2022/06/12 01:51:21;;;;;;;0.50;0.40;;;;;;;15.76;100.00;100778.34;5001539;28;20554;-49
2022/06/12 01:53:56;;;;;;;0.50;0.30;;;;;;;15.87;100.00;100776.06;4996112;28;20942;-49
2022/06/12 01:56:51;;;;;;;0.50;0.30;;;;;;;16.03;100.00;100767.38;4994485;28;20874;-49
2022/06/12 01:59:33;;;;;;;0.50;0.33;;;;;;;16.23;100.00;100773.63;5001182;28;20441;-49
2022/06/12 02:02:16;;;;;;;0.40;0.30;;;;;;;16.18;100.00;100769.41;4995514;28;20552;-49
2022/06/12 02:05:08;;;;;;;0.80;0.80;;;;;;;16.14;100.00;100774.00;5005920;28;20445;-49
2022/06/12 02:07:42;;;;;;;0.50;0.30;;;;;;;16.12;100.00;100772.34;4957979;28;20516;-49
2022/06/12 02:10:43;;;;;;;0.50;0.33;;;;;;;15.83;100.00;100766.44;5006676;28;20448;-49
2022/06/12 02:13:25;;;;;;;0.50;0.30;;;;;;;15.72;100.00;100771.38;5006743;28;20848;-49
2022/06/12 02:16:10;;;;;;;0.87;0.83;;;;;;;15.89;100.00;100781.38;5000728;28;20453;-49
2022/06/12 02:18:43;;;;;;;0.60;0.30;;;;;;;15.90;100.00;100772.41;5000266;28;20448;-50
2022/06/12 02:21:33;;;;;;;0.60;0.50;;;;;;;16.01;100.00;100775.47;5000508;28;20551;-49
2022/06/12 02:24:27;;;;;;;0.83;0.40;;;;;;;16.06;100.00;100769.94;4994429;28;20524;-49
2022/06/12 02:27:08;;;;;;;1.23;1.23;;;;;;;16.18;100.00;100764.03;4976728;28;20496;-49
2022/06/12 02:29:44;;;;;;;0.40;0.33;;;;;;;15.94;100.00;100765.97;5006212;28;20446;-48
2022/06/12 02:32:36;;;;;;;0.50;0.40;;;;;;;15.78;100.00;100779.16;4993412;28;20477;-48
2022/06/12 02:35:26;;;;;;;0.40;0.20;;;;;;;15.72;100.00;100774.03;4992501;28;20481;-48
2022/06/12 02:38:00;;;;;;;0.40;0.20;;;;;;;15.70;100.00;100774.13;5006377;28;20445;-49
2022/06/12 02:40:35;;;;;;;0.57;0.50;;;;;;;16.08;100.00;100770.75;5006387;28;20444;-49
2022/06/12 02:43:08;;;;;;;0.40;0.30;;;;;;;15.88;100.00;100775.13;5000498;28;20455;-49
2022/06/12 02:45:41;;;;;;;0.40;0.20;;;;;;;15.72;100.00;100781.22;5006244;28;20475;-50
2022/06/12 02:48:08;;;;;;;0.40;0.20;;;;;;;15.83;100.00;100779.81;5002085;28;20503;-49
2022/06/12 02:50:42;;;;;;;1.47;1.03;;;;;;;15.73;100.00;100780.28;4996395;28;20470;-49
2022/06/12 02:53:46;;;;;;;0.50;0.50;;;;;;;15.68;100.00;100791.19;5003163;28;20456;-49
2022/06/12 02:56:31;;;;;;;0.40;0.30;;;;;;;15.59;100.00;100784.41;4958911;28;20463;-49
2022/06/12 02:59:21;;;;;;;0.40;0.20;;;;;;;15.53;100.00;100791.81;4997034;28;20814;-49
2022/06/12 03:02:10;;;;;;;0.40;0.20;;;;;;;15.48;100.00;100800.00;4997790;28;20548;-48
2022/06/12 03:04:45;;;;;;;0.50;0.30;;;;;;;15.31;100.00;100797.13;4994373;28;20450;-49
2022/06/12 03:07:13;;;;;;;0.40;0.30;;;;;;;15.33;100.00;100795.28;5002973;28;20453;-49
2022/06/12 03:09:40;;;;;;;1.53;1.43;;;;;;;15.18;100.00;100791.41;4992956;28;20492;-49
2022/06/12 03:12:08;;;;;;;0.40;0.20;;;;;;;15.13;100.00;100795.19;5009473;28;20465;-49
2022/06/12 03:14:35;;;;;;;0.40;0.30;;;;;;;15.20;100.00;100784.16;4998437;28;20488;-48
2022/06/12 03:17:02;;;;;;;0.40;0.20;;;;;;;15.27;100.00;100795.53;5000902;28;20511;-48
2022/06/12 03:19:33;;;;;;;0.50;0.50;;;;;;;15.32;100.00;100788.16;5009416;28;20452;-49
2022/06/12 03:22:09;;;;;;;2.70;0.80;;;;;;;15.32;100.00;100796.19;5010092;28;20547;-48
2022/06/12 03:25:01;;;;;;;1.23;0.80;;;;;;;15.37;100.00;100802.28;4999533;28;20445;-49
2022/06/12 03:28:11;;;;;;;0.50;0.40;;;;;;;15.36;100.00;100795.16;4999847;28;20954;-48
2022/06/12 03:30:53;;;;;;;0.40;0.20;;;;;;;15.32;100.00;100798.88;5008466;28;20499;-49
2022/06/12 03:33:32;;;;;;;2.10;2.10;;;;;;;15.54;100.00;100804.25;5003977;28;20567;-49
2022/06/12 03:36:03;;;;;;;0.40;0.20;;;;;;;15.60;100.00;100809.38;4999382;28;20855;-49
2022/06/12 03:39:05;;;;;;;0.40;0.30;;;;;;;15.39;100.00;100811.13;5006739;28;20453;-48
2022/06/12 03:41:35;;;;;;;0.50;0.30;;;;;;;15.32;100.00;100809.59;5005987;28;20493;-49
2022/06/12 03:44:27;;;;;;;0.50;0.30;;;;;;;15.60;100.00;100820.09;4998689;28;20460;-49
2022/06/12 03:46:57;;;;;;;0.40;0.30;;;;;;;15.33;100.00;100822.94;4996199;28;20457;-49
2022/06/12 03:49:36;;;;;;;0.50;0.37;;;;;;;15.45;100.00;100828.75;5002690;28;20958;-49
2022/06/12 03:52:15;;;;;;;0.40;0.33;;;;;;;15.23;100.00;100826.94;5000034;28;20548;-49
2022/06/12 03:55:06;;;;;;;0.40;0.20;;;;;;;15.21;100.00;100833.25;5005800;28;20894;-49
2022/06/12 03:57:51;;;;;;;2.77;1.13;;;;;;;15.48;100.00;100829.47;4995787;28;20465;-49
2022/06/12 04:00:37;;;;;;;0.40;0.30;;;;;;;15.66;100.00;100831.47;4997478;28;20454;-49
2022/06/12 04:03:16;;;;;;;0.40;0.30;;;;;;;15.57;100.00;100820.22;5007560;28;20492;-49
2022/06/12 04:05:58;;;;;;;0.70;0.70;;;;;;;15.62;100.00;100826.28;5007213;28;20536;-50
2022/06/12 04:08:34;;;;;;;0.40;0.20;;;;;;;15.64;100.00;100827.13;4998974;28;20448;-49
2022/06/12 04:11:02;;;;;;;0.83;0.50;;;;;;;15.65;100.00;100824.38;5010565;28;20503;-49
2022/06/12 04:13:29;;;;;;;0.40;0.30;;;;;;;15.68;100.00;100826.91;4996424;28;20453;-49
2022/06/12 04:16:01;;;;;;;0.40;0.20;;;;;;;15.87;100.00;100829.69;5002530;28;20520;-49
2022/06/12 04:18:30;;;;;;;1.03;1.03;;;;;;;15.94;100.00;100827.66;5001193;28;20851;-50
2022/06/12 04:21:02;;;;;;;0.90;0.87;;;;;;;15.97;100.00;100828.38;5001553;28;20505;-49
2022/06/12 04:23:56;;;;;;;0.40;0.27;;;;;;;16.17;100.00;100832.00;5001724;28;20448;-50
2022/06/12 04:26:42;;;;;;;0.50;0.30;;;;;;;16.16;100.00;100820.41;5009391;28;20969;-49
2022/06/12 04:29:12;;;;;;;0.40;0.20;;;;;;;16.77;100.00;100817.75;4995470;28;20456;-49
2022/06/12 04:31:45;;;;;;;0.47;0.37;;;;;;;17.80;100.00;100827.16;5006896;28;20807;-49
2022/06/12 04:34:41;;;;;;;0.70;0.67;;;;;;;18.48;97.34;100824.56;4996638;28;20445;-49
2022/06/12 04:37:14;;;;;;;0.50;0.47;;;;;;;19.22;93.46;100812.47;4999548;28;20496;-49
2022/06/12 04:39:42;;;;;;;0.40;0.20;;;;;;;19.42;91.39;100814.03;5001723;28;20457;-49
2022/06/12 04:42:12;;;;;;;0.50;0.30;;;;;;;19.73;89.57;100821.25;5000200;28;20489;-49
2022/06/12 04:44:39;;;;;;;0.50;0.30;;;;;;;20.11;87.96;100824.41;5002731;28;20930;-49
2022/06/12 04:47:07;;;;;;;1.00;0.60;;;;;;;20.45;86.25;100822.41;5012449;28;20452;-50
2022/06/12 04:49:36;;;;;;;0.73;0.73;;;;;;;20.62;85.63;100824.06;5004191;28;20453;-50
2022/06/12 04:52:05;;;;;;;0.40;0.30;;;;;;;20.92;84.08;100835.66;5011178;28;20926;-49
2022/06/12 04:54:33;;;;;;;3.30;1.03;;;;;;;21.16;83.62;100830.53;5003856;28;20961;-49
2022/06/12 04:57:01;;;;;;;28.60;1.13;;;;;;;21.36;82.62;100829.28;4998409;28;20454;-49
2022/06/12 04:59:29;;;;;;;0.40;0.30;;;;;;;21.17;83.24;100826.88;5003593;28;20909;-50
2022/06/12 05:01:56;;;;;;;0.50;0.40;;;;;;;21.19;83.56;100826.78;5009246;28;20532;-50
2022/06/12 05:04:25;;;;;;;4.00;1.30;;;;;;;21.52;82.31;100827.34;4994423;28;20484;-49
2022/06/12 05:06:53;;;;;;;2.80;0.80;;;;;;;21.56;82.56;100828.88;4997060;28;20492;-49
2022/06/12 05:09:23;;;;;;;0.47;0.33;;;;;;;21.59;82.29;100830.50;5004597;28;20483;-51
2022/06/12 05:11:53;;;;;;;2.20;0.40;;;;;;;21.97;79.60;100816.25;4995256;28;20462;-49
2022/06/12 05:14:20;;;;;;;0.50;0.43;;;;;;;21.99;80.07;100822.44;4999053;28;20487;-50
2022/06/12 05:16:54;;;;;;;0.57;0.57;;;;;;;22.18;79.56;100826.50;5000597;28;21009;-49
2022/06/12 05:19:24;;;;;;;0.40;0.30;;;;;;;22.22;79.03;100829.03;5006899;28;20527;-49
2022/06/12 05:21:51;;;;;;;0.40;0.30;;;;;;;22.46;78.26;100822.78;5000956;28;20546;-50
2022/06/12 05:24:18;;;;;;;0.97;0.47;;;;;;;22.62;77.48;100827.16;4999603;28;20520;-50
2022/06/12 05:26:47;;;;;;;0.50;0.50;;;;;;;22.63;77.52;100828.88;4999028;28;20531;-49
2022/06/12 05:29:32;;;;;;;0.97;0.97;;;;;;;22.67;77.18;100822.25;4994929;28;20480;-50
2022/06/12 05:32:00;;;;;;;0.40;0.30;;;;;;;23.20;75.50;100826.59;5003320;28;20465;-50
2022/06/12 05:34:27;;;;;;;0.40;0.30;;;;;;;22.92;76.05;100826.84;4996156;28;20449;-50
2022/06/12 05:36:55;;;;;;;1.43;1.33;;;;;;;22.92;75.82;100818.72;4998454;28;20489;-50
2022/06/12 05:39:23;;;;;;;0.70;0.63;;;;;;;22.96;76.13;100823.78;4999891;28;20837;-50
2022/06/12 05:41:51;;;;;;;5.77;0.60;;;;;;;23.03;75.61;100818.81;5004505;28;20898;-50
2022/06/12 05:44:18;;;;;;;0.40;0.30;;;;;;;23.43;74.47;100822.16;4999505;28;20460;-51
2022/06/12 05:46:45;;;;;;;0.50;0.40;;;;;;;23.25;74.64;100818.97;5009509;28;20508;-49
2022/06/12 05:49:12;;;;;;;0.50;0.30;;;;;;;23.61;73.55;100820.00;4999011;28;20550;-49
2022/06/12 05:51:39;;;;;;;0.50;0.30;;;;;;;23.81;72.85;100822.06;4994655;28;20477;-49
2022/06/12 05:54:10;;;;;;;0.50;0.40;;;;;;;23.98;72.71;100817.22;4995129;28;20939;-49
2022/06/12 05:56:37;;;;;;;5.57;1.53;;;;;;;23.94;72.07;100817.44;4997481;28;20477;-49
2022/06/12 05:59:04;;;;;;;0.50;0.50;;;;;;;24.30;71.65;100821.09;4993550;28;20528;-50
2022/06/12 06:01:31;;;;;;;0.40;0.30;;;;;;;24.13;72.86;100825.09;4992920;28;20520;-50
2022/06/12 06:03:58;;;;;;;0.80;0.60;;;;;;;23.69;74.58;100823.00;5006371;28;20504;-50
2022/06/12 06:06:29;;;;;;;0.47;0.40;;;;;;;24.24;73.02;100821.50;4997320;28;20453;-50
2022/06/12 06:09:02;;;;;;;0.50;0.40;;;;;;;24.57;71.29;100826.22;5003340;28;20496;-51
2022/06/12 06:11:28;;;;;;;0.70;0.50;;;;;;;24.30;72.05;100825.66;4993015;28;20892;-51
2022/06/12 06:13:55;;;;;;;0.40;0.30;;;;;;;24.50;71.00;100825.81;5000889;28;20518;-50
2022/06/12 06:16:23;;;;;;;0.60;0.50;;;;;;;24.73;71.27;100824.03;5010493;28;20543;-49
2022/06/12 06:18:50;;;;;;;0.50;0.40;;;;;;;24.91;69.28;100821.69;5001705;28;21024;-47
2022/06/12 06:21:17;;;;;;;0.67;0.47;;;;;;;24.79;67.75;100823.53;5008331;28;20480;-49
2022/06/12 06:23:47;;;;;;;0.50;0.40;;;;;;;25.08;68.21;100821.25;5003408;28;20854;-48
2022/06/12 06:26:14;;;;;;;0.50;0.30;;;;;;;25.10;68.05;100815.69;4997606;28;20465;-50
2022/06/12 06:28:41;;;;;;;0.90;0.90;;;;;;;25.41;67.62;100822.22;5000947;28;20448;-49
2022/06/12 06:31:09;;;;;;;5.00;1.57;;;;;;;25.13;67.43;100814.56;4999780;28;20469;-49
2022/06/12 06:33:37;;;;;;;0.50;0.30;;;;;;;25.16;67.92;100820.63;4992653;28;20952;-49
2022/06/12 06:36:08;;;;;;;0.50;0.30;;;;;;;25.21;67.63;100810.22;5010132;28;20444;-49
2022/06/12 06:38:35;;;;;;;1.60;1.50;;;;;;;25.45;67.02;100812.78;5012678;28;20499;-49
2022/06/12 06:41:02;;;;;;;0.50;0.40;;;;;;;24.83;69.38;100810.56;5012121;28;20473;-49
2022/06/12 06:43:29;;;;;;;0.87;0.87;;;;;;;25.43;66.34;100812.06;5000714;28;20493;-49
2022/06/12 06:46:13;;;;;;;0.50;0.40;;;;;;;25.04;67.65;100814.31;5011081;28;20460;-48
2022/06/12 06:48:40;;;;;;;2.63;0.80;;;;;;;25.17;66.89;100819.63;5008526;28;20456;-49
2022/06/12 06:51:07;;;;;;;0.53;0.53;;;;;;;25.34;67.46;100816.38;5011115;28;20481;-49
2022/06/12 06:53:34;;;;;;;0.50;0.30;;;;;;;25.40;65.80;100815.03;4996514;28;20457;-50
2022/06/12 06:56:01;;;;;;;0.67;0.50;;;;;;;25.19;67.06;100811.34;5006431;28;20461;-49
2022/06/12 06:58:30;;;;;;;0.50;0.40;;;;;;;25.39;64.95;100810.59;4996521;28;21021;-49
2022/06/12 07:00:57;;;;;;;0.40;0.30;;;;;;;25.59;65.17;100812.50;4997684;28;20552;-50
2022/06/12 07:03:24;;;;;;;0.40;0.30;;;;;;;26.09;61.69;100801.97;5006694;28;20522;-49
2022/06/12 07:05:53;;;;;;;0.40;0.30;;;;;;;25.65;63.25;100813.88;4997210;28;20484;-49
2022/06/12 07:08:21;;;;;;;0.50;0.30;;;;;;;26.02;61.21;100810.78;5000861;28;20791;-49
2022/06/12 07:10:49;;;;;;;0.47;0.30;;;;;;;25.75;62.07;100814.84;5002338;28;20544;-51
2022/06/12 07:13:16;;;;;;;0.50;0.40;;;;;;;25.99;62.65;100809.19;4998611;28;20453;-49
2022/06/12 07:15:44;;;;;;;0.70;0.67;;;;;;;25.62;62.70;100812.25;5012068;28;20782;-49
2022/06/12 07:18:12;;;;;;;0.40;0.30;;;;;;;26.26;60.64;100809.56;5010756;28;20811;-50
2022/06/12 07:20:47;;;;;;;1.20;1.10;;;;;;;26.13;60.68;100803.44;5003167;28;20535;-49
2022/06/12 07:23:15;;;;;;;0.70;0.70;;;;;;;25.81;61.74;100805.31;5010310;28;20471;-49
2022/06/12 07:25:46;;;;;;;1.03;0.90;;;;;;;26.16;60.63;100803.16;5011799;28;20874;-49
2022/06/12 07:28:14;;;;;;;0.50;0.30;;;;;;;26.08;60.98;100796.66;5001522;28;20825;-50
2022/06/12 07:30:42;;;;;;;0.50;0.40;;;;;;;25.69;61.31;100802.63;5003795;28;20519;-49
2022/06/12 07:33:09;;;;;;;4.10;2.87;;;;;;;25.83;61.58;100798.75;5001073;28;20457;-49
2022/06/12 07:35:39;;;;;;;0.50;0.30;;;;;;;26.40;59.31;100800.22;5015237;28;20452;-49
2022/06/12 07:38:06;;;;;;;0.50;0.30;;;;;;;26.14;60.51;100805.16;5000890;28;20826;-49
2022/06/12 07:40:39;;;;;;;0.50;0.40;;;;;;;26.10;59.20;100800.13;5009014;28;20450;-49
2022/06/12 07:43:05;;;;;;;0.43;0.27;;;;;;;26.10;59.57;100795.53;4996507;28;20508;-49
2022/06/12 07:45:32;;;;;;;5.47;0.50;;;;;;;26.54;58.73;100790.84;5005342;28;20461;-49
2022/06/12 07:47:59;;;;;;;0.40;0.20;;;;;;;26.16;58.92;100796.84;5007565;28;20435;-49
2022/06/12 07:50:25;;;;;;;0.73;0.73;;;;;;;25.93;58.81;100794.25;4996943;28;20457;-49
2022/06/12 07:52:52;;;;;;;0.60;0.50;;;;;;;26.23;59.69;100792.63;5007237;28;20499;-49
2022/06/12 07:55:20;;;;;;;0.50;0.30;;;;;;;26.11;58.50;100801.84;4996929;28;20453;-49
2022/06/12 07:57:48;;;;;;;0.57;0.53;;;;;;;26.57;58.77;100785.13;5006143;28;21029;-49
2022/06/12 08:00:16;;;;;;;0.50;0.30;;;;;;;26.43;58.17;100790.91;4996905;28;20491;-51
2022/06/12 08:02:45;;;;;;;0.40;0.30;;;;;;;26.65;58.55;100790.78;5006462;28;20489;-49
2022/06/12 08:05:14;;;;;;;0.63;0.30;;;;;;;26.74;58.45;100787.25;4997448;28;20523;-49
2022/06/12 08:07:41;;;;;;;0.70;0.60;;;;;;;26.86;56.20;100780.69;5005930;28;20482;-49
2022/06/12 08:10:08;;;;;;;0.50;0.30;;;;;;;26.70;56.92;100780.31;4998074;28;20958;-49
2022/06/12 08:12:39;;;;;;;0.50;0.30;;;;;;;27.03;56.00;100784.69;5005215;28;20444;-49
2022/06/12 08:15:10;;;;;;;0.40;0.30;;;;;;;26.60;57.03;100784.00;5001842;28;20908;-49
2022/06/12 08:17:37;;;;;;;0.40;0.30;;;;;;;26.67;57.57;100777.00;5002702;28;20480;-49
2022/06/12 08:22:50;;;;;;;0.60;0.40;;;;;;;26.66;56.82;100784.31;5013049;28;20492;-49
2022/06/12 08:25:17;;;;;;;0.70;0.70;;;;;;;26.66;58.06;100778.00;4995299;28;20449;-49
2022/06/12 08:27:44;;;;;;;0.60;0.40;;;;;;;26.80;56.04;100781.22;5008394;28;20514;-48
2022/06/12 08:30:12;;;;;;;0.50;0.50;;;;;;;26.58;57.86;100771.34;4994769;28;20841;-49
2022/06/12 08:32:41;;;;;;;0.70;0.70;;;;;;;27.46;55.92;100780.78;5008159;28;20428;-49
2022/06/12 08:35:13;;;;;;;0.50;0.30;;;;;;;27.77;56.38;100777.97;4995208;28;20898;-49
2022/06/12 08:37:41;;;;;;;0.50;0.30;;;;;;;28.13;54.66;100787.34;5008064;28;20512;-49
2022/06/12 08:40:18;;;;;;;0.40;0.27;;;;;;;27.00;56.62;100773.13;4994528;28;20440;-49
2022/06/12 08:43:13;;;;;;;0.50;0.37;;;;;;;27.04;56.09;100767.31;5007661;28;20477;-49
2022/06/12 08:45:46;;;;;;;0.40;0.27;;;;;;;27.07;56.35;100763.44;5006035;28;20462;-49
2022/06/12 08:48:31;;;;;;;2.93;2.83;;;;;;;26.87;57.54;100759.75;5004017;28;20455;-50
2022/06/12 08:51:12;;;;;;;0.60;0.30;;;;;;;26.97;56.74;100766.06;5000840;28;20450;-49
2022/06/12 08:53:47;;;;;;;1.00;1.00;;;;;;;27.37;55.64;100752.44;4999349;28;20467;-49
2022/06/12 08:56:52;;;;;;;0.60;0.60;;;;;;;27.62;55.86;100761.97;5004372;28;20498;-49
2022/06/12 08:59:31;;;;;;;1.93;1.33;;;;;;;27.66;56.05;100759.84;5013935;28;20419;-49
2022/06/12 09:02:00;;;;;;;0.40;0.30;;;;;;;27.23;55.73;100755.56;5013996;28;20468;-49
2022/06/12 09:04:26;;;;;;;0.50;0.50;;;;;;;27.77;55.55;100754.25;5013869;28;20910;-49
2022/06/12 09:07:05;;;;;;;1.23;0.83;;;;;;;27.95;56.29;100757.13;5013573;28;20453;-50
2022/06/12 09:09:43;;;;;;;0.40;0.30;;;;;;;28.07;55.83;100745.03;5013920;28;20659;-49
2022/06/12 09:12:26;;;;;;;0.67;0.30;;;;;;;28.65;54.12;100744.09;5001978;28;20947;-49
2022/06/12 09:15:19;;;;;;;0.50;0.40;;;;;;;28.35;54.76;100740.56;5001369;28;20452;-49
2022/06/12 09:17:56;;;;;;;0.70;0.47;;;;;;;28.30;55.01;100735.53;5000017;28;20515;-50
2022/06/12 09:20:42;;;;;;;0.83;0.83;;;;;;;28.45;54.52;100733.19;5002352;28;20808;-50
2022/06/12 09:23:26;;;;;;;0.43;0.30;;;;;;;28.73;52.87;100728.63;5009078;28;20452;-49
2022/06/12 09:26:29;;;;;;;0.40;0.30;;;;;;;27.90;54.59;100722.03;4994219;28;20974;-51
2022/06/12 09:29:22;;;;;;;0.50;0.40;;;;;;;28.27;55.08;100729.50;5001832;28;20997;-51
2022/06/12 09:32:06;;;;;;;0.87;0.70;;;;;;;28.31;54.79;100723.59;4996039;28;20586;-50
2022/06/12 09:35:11;;;;;;;0.50;0.37;;;;;;;28.21;54.27;100719.09;4995848;28;20442;-50
2022/06/12 09:40:47;;;;;;;0.50;0.30;;;;;;;28.77;52.85;100720.97;4995686;28;20439;-50
2022/06/12 09:43:32;;;;;;;0.50;0.43;;;;;;;28.61;53.32;100727.97;5003950;28;20477;-49
2022/06/12 09:46:16;;;;;;;0.50;0.37;;;;;;;28.25;53.78;100724.16;5007631;28;20457;-49
2022/06/12 09:48:57;;;;;;;0.50;0.40;;;;;;;27.53;55.85;100712.78;4998468;28;20446;-51
2022/06/12 09:51:33;;;;;;;5.93;0.90;;;;;;;27.48;56.50;100704.16;5003578;28;20484;-50
2022/06/12 09:54:12;;;;;;;1.93;1.80;;;;;;;27.31;56.50;100705.72;4995645;28;20491;-49
2022/06/12 09:56:42;;;;;;;0.87;0.87;;;;;;;27.30;57.56;100699.41;5006599;28;20535;-51
2022/06/12 09:59:22;;;;;;;3.03;0.50;;;;;;;27.19;57.40;100699.53;5000284;28;20448;-49
2022/06/12 10:01:54;;;;;;;0.57;0.57;;;;;;;27.31;58.21;100700.28;4997383;28;20475;-50
2022/06/12 10:04:44;;;;;;;0.50;0.40;;;;;;;27.87;56.35;100705.94;5003058;28;20543;-50
2022/06/12 10:07:18;;;;;;;0.50;0.30;;;;;;;27.74;56.10;100694.44;4993611;28;20475;-49
2022/06/12 10:10:04;;;;;;;0.50;0.40;;;;;;;27.80;55.01;100684.78;5006503;28;20786;-50
2022/06/12 10:12:38;;;;;;;0.50;0.50;;;;;;;28.16;55.44;100686.75;4993165;28;20440;-50
2022/06/12 10:15:34;;;;;;;0.50;0.50;;;;;;;27.82;54.99;100685.50;5011206;28;20939;-49
2022/06/12 10:18:06;;;;;;;0.40;0.30;;;;;;;28.43;53.12;100690.59;4987061;28;20507;-50
2022/06/12 10:20:44;;;;;;;0.40;0.30;;;;;;;28.61;53.64;100689.66;5002106;28;20491;-50
2022/06/12 10:23:11;;;;;;;0.60;0.60;;;;;;;28.62;53.78;100691.38;5008309;28;20582;-50
2022/06/12 10:25:46;;;;;;;0.87;0.87;;;;;;;28.74;53.62;100692.03;4993091;28;20453;-49
2022/06/12 10:28:12;;;;;;;1.50;0.40;;;;;;;28.25;53.91;100695.94;5006198;28;20420;-49
2022/06/12 10:30:42;;;;;;;2.40;1.63;;;;;;;28.24;53.74;100686.88;4992730;28;20535;-50
2022/06/12 10:33:43;;;;;;;0.40;0.30;;;;;;;28.16;54.18;100683.16;5006438;28;20824;-50
2022/06/12 10:36:20;;;;;;;1.30;0.60;;;;;;;28.12;53.70;100676.25;4996644;28;20535;-49
2022/06/12 10:38:47;;;;;;;40.30;2.00;;;;;;;28.85;52.22;100669.97;5000499;28;20427;-50
2022/06/12 10:41:24;;;;;;;0.53;0.40;;;;;;;28.99;51.92;100679.56;4999234;28;20468;-50
2022/06/12 10:43:53;;;;;;;0.50;0.40;;;;;;;29.70;51.09;100665.06;4998734;28;20467;-50
2022/06/12 10:46:26;;;;;;;0.40;0.30;;;;;;;29.39;51.04;100678.28;5009462;28;20452;-50
2022/06/12 10:49:05;;;;;;;0.50;0.40;;;;;;;29.71;50.51;100670.41;4997045;28;20536;-50
2022/06/12 10:51:36;;;;;;;0.40;0.30;;;;;;;29.60;47.05;100661.56;5003740;28;20521;-50
2022/06/12 10:54:17;;;;;;;0.50;0.40;;;;;;;29.68;47.33;100662.50;4996444;28;20446;-50
2022/06/12 10:56:54;;;;;;;0.40;0.30;;;;;;;29.85;46.45;100668.13;5005702;28;20448;-50
2022/06/12 10:59:38;;;;;;;0.50;0.30;;;;;;;30.06;44.46;100654.97;5000529;28;20498;-50
2022/06/12 11:02:17;;;;;;;0.40;0.30;;;;;;;30.29;43.48;100647.91;4995537;28;20436;-50
2022/06/12 11:05:21;;;;;;;0.63;0.63;;;;;;;30.08;44.97;100648.28;5005005;28;20470;-50
2022/06/12 11:08:15;;;;;;;0.80;0.73;;;;;;;30.57;44.44;100645.84;5001369;28;20941;-50
2022/06/12 11:10:44;;;;;;;0.50;0.30;;;;;;;30.19;44.65;100649.03;4998745;28;20852;-50
2022/06/12 11:13:18;;;;;;;0.70;0.70;;;;;;;30.02;44.55;100648.03;5006805;28;20445;-51
2022/06/12 11:15:54;;;;;;;0.53;0.33;;;;;;;29.91;45.01;100642.81;5005207;28;20452;-50
2022/06/12 11:18:31;;;;;;;0.40;0.30;;;;;;;30.06;44.40;100636.63;4992402;28;20515;-50
2022/06/12 11:21:06;;;;;;;0.40;0.30;;;;;;;30.27;43.74;100629.88;5005232;28;20446;-50
2022/06/12 11:23:42;;;;;;;0.73;0.73;;;;;;;30.45;43.92;100627.06;5010710;28;20494;-51
2022/06/12 11:26:50;;;;;;;0.60;0.57;;;;;;;30.52;44.63;100619.88;4995776;28;20427;-50
2022/06/12 11:29:47;;;;;;;0.40;0.30;;;;;;;30.69;41.77;100621.69;4978453;28;20438;-51
2022/06/12 11:32:48;;;;;;;0.57;0.57;;;;;;;30.47;42.55;100609.41;5006415;28;20520;-50
2022/06/12 11:35:40;;;;;;;0.40;0.30;;;;;;;30.40;41.94;100623.94;4998401;28;20515;-50
2022/06/12 11:38:15;;;;;;;5.70;1.00;;;;;;;30.26;42.72;100618.03;5005698;28;20468;-50
2022/06/12 11:40:53;;;;;;;1.60;0.83;;;;;;;30.01;42.65;100613.38;4998549;28;20471;-50
2022/06/12 11:43:35;;;;;;;0.40;0.30;;;;;;;30.31;42.44;100606.59;5009281;28;20522;-50
2022/06/12 11:46:12;;;;;;;0.50;0.40;;;;;;;30.03;41.93;100604.00;5006976;28;20490;-50
2022/06/12 11:48:47;;;;;;;4.30;3.70;;;;;;;29.98;43.29;100594.53;5001468;28;20453;-51
2022/06/12 11:51:46;;;;;;;1.47;1.27;;;;;;;30.12;42.50;100599.44;4997742;28;20903;-50
2022/06/12 11:54:32;;;;;;;0.50;0.40;;;;;;;30.60;42.17;100596.09;4953604;28;20514;-50
2022/06/12 11:57:36;;;;;;;0.50;0.30;;;;;;;30.50;41.50;100592.63;5006406;28;20424;-50
2022/06/12 12:00:09;;;;;;;0.50;0.50;;;;;;;30.78;40.71;100589.66;5011132;28;20458;-50
2022/06/12 12:03:28;;;;;;;3.30;0.40;;;;;;;30.47;40.89;100576.47;5002206;28;20958;-51
2022/06/12 12:06:25;;;;;;;0.67;0.40;;;;;;;30.00;41.90;100565.06;4941689;28;20832;-50
2022/06/12 12:09:29;;;;;;;0.50;0.40;;;;;;;30.04;42.61;100571.97;5000200;28;20927;-50